Time;durP1;ratioP1;P1;durP2;ratioP2;P2;SDS_P1;SDS_P2;PMS_P1;PMS_P2;Temp;Humidity;BMP_temperature;BMP_pressure;BME280_temperature;BME280_humidity;BME280_pressure;Samples;Min_cycle;Max_cycle;Signal;HPM_P1;HPM_P2
2023/10/31 00:02:25;;;;;;;39.42;18.75;;;;;;;;;;5095611;28;20044;-78
2023/10/31 00:04:51;;;;;;;42.90;17.83;;;;;;;;;;5096200;28;20146;-78
2023/10/31 00:07:17;;;;;;;45.20;18.48;;;;;;;;;;5079646;28;20082;-77
2023/10/31 00:09:43;;;;;;;37.33;18.35;;;;;;;;;;5113052;28;20040;-76
2023/10/31 00:12:10;;;;;;;39.65;18.40;;;;;;;;;;5076556;28;20044;-76
2023/10/31 00:14:36;;;;;;;42.30;18.58;;;;;;;;;;5107845;28;20122;-78
2023/10/31 00:17:02;;;;;;;48.50;18.98;;;;;;;;;;5106548;28;20050;-78
2023/10/31 00:19:28;;;;;;;40.38;18.95;;;;;;;;;;5105465;28;20044;-78
2023/10/31 00:21:54;;;;;;;45.60;19.10;;;;;;;;;;5104283;28;20058;-77
2023/10/31 00:24:20;;;;;;;47.38;19.95;;;;;;;;;;5100683;28;20040;-77
2023/10/31 00:26:46;;;;;;;47.80;19.52;;;;;;;;;;5080377;28;20043;-76
2023/10/31 00:29:12;;;;;;;53.33;19.30;;;;;;;;;;5079245;28;20044;-75
2023/10/31 00:31:41;;;;;;;53.03;20.00;;;;;;;;;;5077791;28;20048;-77
2023/10/31 00:34:07;;;;;;;47.25;19.02;;;;;;;;;;5076739;28;20503;-76
2023/10/31 00:36:34;;;;;;;52.00;20.02;;;;;;;;;;5095264;28;20438;-76
2023/10/31 00:39:00;;;;;;;52.13;20.70;;;;;;;;;;5094181;28;20051;-79
2023/10/31 00:41:26;;;;;;;64.60;21.10;;;;;;;;;;5095500;28;20036;-81
2023/10/31 00:43:52;;;;;;;50.83;19.85;;;;;;;;;;5095236;28;20086;-82
2023/10/31 00:46:18;;;;;;;52.67;19.50;;;;;;;;;;5095084;28;20089;-80
2023/10/31 00:48:44;;;;;;;59.50;21.08;;;;;;;;;;5094889;28;20048;-80
2023/10/31 00:51:10;;;;;;;64.22;21.00;;;;;;;;;;5095049;28;20044;-82
2023/10/31 00:53:36;;;;;;;61.22;21.75;;;;;;;;;;5094416;28;20036;-82
2023/10/31 00:56:02;;;;;;;26.88;11.25;;;;;;;;;;5094410;28;20079;-80
2023/10/31 00:58:29;;;;;;;15.25;5.78;;;;;;;;;;5094661;28;20084;-80
2023/10/31 01:00:55;;;;;;;7.88;2.60;;;;;;;;;;5077646;28;20048;-79
2023/10/31 01:03:21;;;;;;;6.47;2.42;;;;;;;;;;5095780;28;20087;-84
2023/10/31 01:05:47;;;;;;;6.25;1.70;;;;;;;;;;5078712;28;20052;-83
2023/10/31 01:08:13;;;;;;;4.10;1.10;;;;;;;;;;5095353;28;20048;-79
2023/10/31 01:10:39;;;;;;;4.32;0.77;;;;;;;;;;5095276;28;20048;-83
2023/10/31 01:13:05;;;;;;;4.55;0.75;;;;;;;;;;5095291;28;20148;-77
2023/10/31 01:15:31;;;;;;;2.58;0.70;;;;;;;;;;5093979;28;20090;-80
2023/10/31 01:17:57;;;;;;;2.53;0.40;;;;;;;;;;5076671;28;20388;-80
2023/10/31 01:20:24;;;;;;;2.93;0.80;;;;;;;;;;5094273;28;20105;-81
2023/10/31 01:22:50;;;;;;;4.13;0.43;;;;;;;;;;5080072;28;20044;-84
2023/10/31 01:25:16;;;;;;;1.88;0.40;;;;;;;;;;5098097;28;20048;-82
2023/10/31 01:27:43;;;;;;;1.42;0.20;;;;;;;;;;5094504;28;20126;-79
2023/10/31 01:30:09;;;;;;;0.52;0.10;;;;;;;;;;5094369;28;20126;-73
2023/10/31 01:32:35;;;;;;;1.50;0.20;;;;;;;;;;5094399;28;20040;-79
2023/10/31 01:35:01;;;;;;;1.40;0.20;;;;;;;;;;5076835;28;20361;-80
2023/10/31 01:37:27;;;;;;;1.65;0.20;;;;;;;;;;5093905;28;20036;-79
2023/10/31 01:39:53;;;;;;;2.00;0.30;;;;;;;;;;5094470;28;20356;-81
2023/10/31 01:42:19;;;;;;;4.15;0.20;;;;;;;;;;5076751;28;20101;-82
2023/10/31 01:44:45;;;;;;;2.33;0.30;;;;;;;;;;5059712;28;20430;-80
2023/10/31 01:47:12;;;;;;;1.02;0.10;;;;;;;;;;5094270;28;20051;-80
2023/10/31 01:49:38;;;;;;;5.50;0.28;;;;;;;;;;5094645;28;20055;-80
2023/10/31 01:52:05;;;;;;;3.75;0.20;;;;;;;;;;5094974;28;20081;-80
2023/10/31 01:54:33;;;;;;;5.47;0.40;;;;;;;;;;5095276;28;20126;-78
2023/10/31 01:56:59;;;;;;;1.60;0.17;;;;;;;;;;5077450;28;20399;-81
2023/10/31 01:59:26;;;;;;;4.80;0.30;;;;;;;;;;5096981;28;20043;-81
2023/10/31 02:01:53;;;;;;;2.83;0.20;;;;;;;;;;5098355;28;20285;-78
2023/10/31 02:04:19;;;;;;;3.08;0.30;;;;;;;;;;5077634;28;20416;-78
2023/10/31 02:06:45;;;;;;;4.68;0.30;;;;;;;;;;5077715;28;20052;-81
2023/10/31 02:09:11;;;;;;;4.53;0.60;;;;;;;;;;5094650;28;20091;-81
2023/10/31 02:11:38;;;;;;;5.95;0.40;;;;;;;;;;5093580;28;20052;-81
2023/10/31 02:14:04;;;;;;;3.67;0.40;;;;;;;;;;5075869;28;20404;-81
2023/10/31 02:16:30;;;;;;;5.35;0.50;;;;;;;;;;5093720;28;20047;-79
2023/10/31 02:18:56;;;;;;;5.45;0.60;;;;;;;;;;5093875;28;20048;-77
2023/10/31 02:21:22;;;;;;;6.07;0.40;;;;;;;;;;5093822;28;20480;-76
2023/10/31 02:23:58;;;;;;;6.07;0.82;;;;;;;;;;5075337;28;20044;-81
2023/10/31 02:26:28;;;;;;;6.15;0.50;;;;;;;;;;5093114;28;20384;-76
2023/10/31 02:28:54;;;;;;;9.68;0.50;;;;;;;;;;5093900;28;20055;-82
2023/10/31 02:31:20;;;;;;;5.00;0.40;;;;;;;;;;5093582;28;20090;-76
2023/10/31 02:33:46;;;;;;;10.75;0.60;;;;;;;;;;5092950;28;20047;-79
2023/10/31 02:36:12;;;;;;;5.80;0.43;;;;;;;;;;5093437;28;20445;-78
2023/10/31 02:38:38;;;;;;;7.13;0.60;;;;;;;;;;5093704;28;20048;-79
2023/10/31 02:41:04;;;;;;;8.77;0.77;;;;;;;;;;5093265;28;20502;-78
2023/10/31 02:43:31;;;;;;;7.47;1.20;;;;;;;;;;5075207;28;20044;-76
2023/10/31 02:45:57;;;;;;;9.15;0.90;;;;;;;;;;5093163;28;20048;-78
2023/10/31 02:48:24;;;;;;;14.20;0.70;;;;;;;;;;5092972;28;20511;-76
2023/10/31 02:50:51;;;;;;;10.45;1.02;;;;;;;;;;5092855;28;20102;-78
2023/10/31 02:53:18;;;;;;;13.33;1.40;;;;;;;;;;5092859;28;20105;-81
2023/10/31 02:55:44;;;;;;;12.20;2.42;;;;;;;;;;5074712;28;20048;-78
2023/10/31 02:58:10;;;;;;;15.88;3.03;;;;;;;;;;5092790;28;20051;-79
2023/10/31 03:00:36;;;;;;;8.02;2.17;;;;;;;;;;5093004;28;20055;-77
2023/10/31 03:03:03;;;;;;;7.88;1.90;;;;;;;;;;5076140;28;20124;-78
2023/10/31 03:05:29;;;;;;;11.68;2.22;;;;;;;;;;5096336;28;20052;-78
2023/10/31 03:07:55;;;;;;;11.40;1.55;;;;;;;;;;5096566;28;20132;-77
2023/10/31 03:10:22;;;;;;;7.97;1.40;;;;;;;;;;5095998;28;20480;-79
2023/10/31 03:12:48;;;;;;;15.40;1.37;;;;;;;;;;5096844;28;20040;-78
2023/10/31 03:15:14;;;;;;;15.45;1.77;;;;;;;;;;5096974;28;20370;-79
2023/10/31 03:17:40;;;;;;;10.90;1.75;;;;;;;;;;5097195;28;20048;-81
2023/10/31 03:20:06;;;;;;;11.38;1.70;;;;;;;;;;5097182;28;20122;-80
2023/10/31 03:22:32;;;;;;;9.03;1.73;;;;;;;;;;5080141;28;20054;-82
2023/10/31 03:24:58;;;;;;;10.48;2.08;;;;;;;;;;5097678;28;20274;-81
2023/10/31 03:27:24;;;;;;;12.20;2.08;;;;;;;;;;5097061;28;20050;-81
2023/10/31 03:29:50;;;;;;;7.93;2.15;;;;;;;;;;5097763;28;20039;-80
2023/10/31 03:32:17;;;;;;;8.27;1.90;;;;;;;;;;5079312;28;20090;-81
2023/10/31 03:34:43;;;;;;;10.93;1.70;;;;;;;;;;5096693;28;20108;-80
2023/10/31 03:37:09;;;;;;;8.43;1.77;;;;;;;;;;5098209;28;20048;-78
2023/10/31 03:39:35;;;;;;;7.72;1.70;;;;;;;;;;5096489;28;20040;-78
2023/10/31 03:42:01;;;;;;;9.77;1.90;;;;;;;;;;5096153;28;20067;-81
2023/10/31 03:44:27;;;;;;;8.70;1.05;;;;;;;;;;5078450;28;20047;-82
2023/10/31 03:46:53;;;;;;;6.07;0.95;;;;;;;;;;5079004;28;20075;-82
2023/10/31 03:49:19;;;;;;;7.55;1.58;;;;;;;;;;5097776;28;20135;-80
2023/10/31 03:51:45;;;;;;;9.18;2.10;;;;;;;;;;5097090;28;20131;-79
2023/10/31 03:54:11;;;;;;;5.85;1.80;;;;;;;;;;5095794;28;20479;-75
2023/10/31 03:56:41;;;;;;;6.85;2.10;;;;;;;;;;5096975;28;20059;-78
2023/10/31 03:59:07;;;;;;;10.38;2.50;;;;;;;;;;5078778;28;20046;-81
2023/10/31 04:01:33;;;;;;;8.73;2.10;;;;;;;;;;5097214;28;20473;-79
2023/10/31 04:03:59;;;;;;;4.97;1.17;;;;;;;;;;5096694;28;20036;-77
2023/10/31 04:06:25;;;;;;;9.02;0.90;;;;;;;;;;5074321;28;20408;-76
2023/10/31 04:08:53;;;;;;;7.15;1.00;;;;;;;;;;5074017;28;20102;-79
2023/10/31 04:11:19;;;;;;;9.02;1.50;;;;;;;;;;5075316;28;20092;-79
2023/10/31 04:13:45;;;;;;;7.18;1.20;;;;;;;;;;5076445;28;20393;-78
2023/10/31 04:16:11;;;;;;;4.85;1.10;;;;;;;;;;5057925;28;20122;-78
2023/10/31 04:18:37;;;;;;;5.47;0.90;;;;;;;;;;5075842;28;20048;-78
2023/10/31 04:21:04;;;;;;;9.93;1.23;;;;;;;;;;5076752;28;20110;-77
2023/10/31 04:23:30;;;;;;;5.47;1.00;;;;;;;;;;5074774;28;20051;-79
2023/10/31 04:25:56;;;;;;;6.20;0.95;;;;;;;;;;5074220;28;20049;-79
2023/10/31 04:28:22;;;;;;;8.93;1.05;;;;;;;;;;5075360;28;20249;-76
2023/10/31 04:30:48;;;;;;;8.70;1.52;;;;;;;;;;5078150;28;20071;-80
2023/10/31 04:33:14;;;;;;;4.63;1.05;;;;;;;;;;5079216;28;20041;-80
2023/10/31 04:35:40;;;;;;;11.27;2.22;;;;;;;;;;5076494;28;20091;-79
2023/10/31 04:38:06;;;;;;;13.52;1.45;;;;;;;;;;5078452;28;20452;-77
2023/10/31 04:40:32;;;;;;;12.70;1.60;;;;;;;;;;5077442;28;20053;-78
2023/10/31 04:42:58;;;;;;;9.82;1.85;;;;;;;;;;5075457;28;20052;-78
2023/10/31 04:45:24;;;;;;;8.57;1.33;;;;;;;;;;5077157;28;20045;-78
2023/10/31 04:47:50;;;;;;;8.55;1.70;;;;;;;;;;5075112;28;20052;-78
2023/10/31 04:50:16;;;;;;;8.88;2.17;;;;;;;;;;5075875;28;20044;-79
2023/10/31 04:52:42;;;;;;;8.43;1.33;;;;;;;;;;5075811;28;20043;-77
2023/10/31 04:55:09;;;;;;;9.57;1.63;;;;;;;;;;5057150;28;20377;-72
2023/10/31 04:57:35;;;;;;;7.18;1.65;;;;;;;;;;5074453;28;20037;-76
2023/10/31 05:00:01;;;;;;;15.07;2.00;;;;;;;;;;5073912;28;20425;-79
2023/10/31 05:02:28;;;;;;;8.27;2.30;;;;;;;;;;5073945;28;20130;-78
2023/10/31 05:04:54;;;;;;;9.77;1.35;;;;;;;;;;5074934;28;20051;-78
2023/10/31 05:07:20;;;;;;;16.13;1.95;;;;;;;;;;5076791;28;20139;-76
2023/10/31 05:09:46;;;;;;;9.05;2.20;;;;;;;;;;5094168;28;20044;-77
2023/10/31 05:12:12;;;;;;;9.65;1.77;;;;;;;;;;5094058;28;20054;-77
2023/10/31 05:14:40;;;;;;;11.80;1.42;;;;;;;;;;5076748;28;20048;-76
2023/10/31 05:17:06;;;;;;;5.82;1.13;;;;;;;;;;5076869;28;20036;-78
2023/10/31 05:19:32;;;;;;;11.43;1.30;;;;;;;;;;5094882;28;20048;-77
2023/10/31 05:21:58;;;;;;;7.90;1.42;;;;;;;;;;5093853;28;20043;-78
2023/10/31 05:24:24;;;;;;;11.30;1.75;;;;;;;;;;5075734;28;20044;-79
2023/10/31 05:26:50;;;;;;;9.88;1.30;;;;;;;;;;5058959;28;20056;-79
2023/10/31 05:29:16;;;;;;;7.18;1.85;;;;;;;;;;5093824;28;20100;-79
2023/10/31 05:31:43;;;;;;;7.78;1.40;;;;;;;;;;5076884;28;20048;-78
2023/10/31 05:34:09;;;;;;;11.23;1.38;;;;;;;;;;5094337;28;20040;-77
2023/10/31 05:36:35;;;;;;;7.70;1.50;;;;;;;;;;5093810;28;20052;-80
2023/10/31 05:39:01;;;;;;;9.32;1.00;;;;;;;;;;5094898;28;20140;-83
2023/10/31 05:41:27;;;;;;;6.97;1.13;;;;;;;;;;5076188;28;20044;-79
2023/10/31 05:43:53;;;;;;;4.93;0.85;;;;;;;;;;5093910;28;20052;-76
2023/10/31 05:46:19;;;;;;;4.50;0.90;;;;;;;;;;5094379;28;20048;-79
2023/10/31 05:48:46;;;;;;;4.45;0.90;;;;;;;;;;5094888;28;20146;-79
2023/10/31 05:51:16;;;;;;;6.65;0.98;;;;;;;;;;5095424;28;20055;-80
2023/10/31 05:53:44;;;;;;;8.48;1.58;;;;;;;;;;5096977;28;20048;-80
2023/10/31 05:56:10;;;;;;;6.90;1.40;;;;;;;;;;5095038;28;20438;-82
2023/10/31 05:58:38;;;;;;;6.20;1.25;;;;;;;;;;5080034;28;20105;-77
2023/10/31 06:01:04;;;;;;;6.80;2.75;;;;;;;;;;5090566;28;20055;-76
2023/10/31 06:03:36;;;;;;;6.32;1.65;;;;;;;;;;5095887;28;20051;-78
2023/10/31 06:06:02;;;;;;;11.10;2.05;;;;;;;;;;5111746;28;20349;-77
2023/10/31 06:08:28;;;;;;;8.73;2.38;;;;;;;;;;5110366;28;20052;-78
2023/10/31 06:10:56;;;;;;;7.38;2.47;;;;;;;;;;5107532;28;20052;-80
2023/10/31 06:13:22;;;;;;;10.45;2.50;;;;;;;;;;5093948;28;20052;-77
2023/10/31 06:15:48;;;;;;;8.75;2.03;;;;;;;;;;5075710;28;20048;-79
2023/10/31 06:18:14;;;;;;;9.63;1.73;;;;;;;;;;5094169;28;20044;-77
2023/10/31 06:20:40;;;;;;;5.82;1.20;;;;;;;;;;5093808;28;20040;-78
2023/10/31 06:23:06;;;;;;;11.77;1.40;;;;;;;;;;5077252;28;20399;-79
2023/10/31 06:25:32;;;;;;;9.23;1.20;;;;;;;;;;5098558;28;20043;-80
2023/10/31 06:27:58;;;;;;;5.47;1.33;;;;;;;;;;5100232;28;20072;-78
2023/10/31 06:30:25;;;;;;;6.32;1.30;;;;;;;;;;5085095;28;20048;-81
2023/10/31 06:32:54;;;;;;;4.00;1.00;;;;;;;;;;5101350;28;20036;-79
2023/10/31 06:35:20;;;;;;;6.40;1.10;;;;;;;;;;5081356;28;20048;-82
2023/10/31 06:37:46;;;;;;;4.93;1.00;;;;;;;;;;5101659;28;20041;-81
2023/10/31 06:40:12;;;;;;;5.60;1.10;;;;;;;;;;5084062;28;20131;-80
2023/10/31 06:42:38;;;;;;;4.93;0.93;;;;;;;;;;5103334;28;20105;-78
2023/10/31 06:45:04;;;;;;;6.45;1.10;;;;;;;;;;5083550;28;20058;-75
2023/10/31 06:47:30;;;;;;;5.87;0.80;;;;;;;;;;5081032;28;20410;-77
2023/10/31 06:49:57;;;;;;;8.93;1.25;;;;;;;;;;5080158;28;20105;-76
2023/10/31 06:52:23;;;;;;;7.35;1.30;;;;;;;;;;5065204;28;20484;-77
2023/10/31 06:54:49;;;;;;;4.78;1.30;;;;;;;;;;5064853;28;20074;-80
2023/10/31 06:57:16;;;;;;;6.73;0.83;;;;;;;;;;5098286;28;20519;-74
2023/10/31 06:59:42;;;;;;;8.68;1.70;;;;;;;;;;5099563;28;20043;-78
2023/10/31 07:02:08;;;;;;;7.15;2.47;;;;;;;;;;5098371;28;20060;-80
2023/10/31 07:04:34;;;;;;;6.28;1.40;;;;;;;;;;5097945;28;20387;-73
2023/10/31 07:07:00;;;;;;;9.65;1.40;;;;;;;;;;5099029;28;20064;-72
2023/10/31 07:09:27;;;;;;;6.00;1.88;;;;;;;;;;5081170;28;20044;-78
2023/10/31 07:11:53;;;;;;;6.30;1.63;;;;;;;;;;5080430;28;20074;-77
2023/10/31 07:14:19;;;;;;;10.10;2.00;;;;;;;;;;5097991;28;20072;-79
2023/10/31 07:16:45;;;;;;;5.88;1.73;;;;;;;;;;5079232;28;20130;-75
2023/10/31 07:19:12;;;;;;;9.27;1.40;;;;;;;;;;5096762;28;20048;-75
2023/10/31 07:21:38;;;;;;;6.80;1.60;;;;;;;;;;5078959;28;20135;-79
2023/10/31 07:24:04;;;;;;;6.15;1.25;;;;;;;;;;5078721;28;20051;-78
2023/10/31 07:26:30;;;;;;;8.40;1.50;;;;;;;;;;5079162;28;20059;-75
2023/10/31 07:28:56;;;;;;;6.57;1.13;;;;;;;;;;5096297;28;20044;-75
2023/10/31 07:31:22;;;;;;;3.42;0.75;;;;;;;;;;5095961;28;20055;-75
2023/10/31 07:33:48;;;;;;;8.45;1.20;;;;;;;;;;5096080;28;20372;-77
2023/10/31 07:36:14;;;;;;;5.50;0.82;;;;;;;;;;5061221;28;20099;-74
2023/10/31 07:38:40;;;;;;;6.80;1.23;;;;;;;;;;5097035;28;20051;-76
2023/10/31 07:41:06;;;;;;;6.95;0.95;;;;;;;;;;5078240;28;20044;-79
2023/10/31 07:43:32;;;;;;;5.85;1.00;;;;;;;;;;5096314;28;20040;-76
2023/10/31 07:45:59;;;;;;;8.20;0.88;;;;;;;;;;5096318;28;20062;-76
2023/10/31 07:48:25;;;;;;;7.10;1.05;;;;;;;;;;5096317;28;20182;-77
2023/10/31 07:50:51;;;;;;;5.18;1.10;;;;;;;;;;5096118;28;20459;-74
2023/10/31 07:53:17;;;;;;;5.10;1.20;;;;;;;;;;5095795;28;20043;-74
2023/10/31 07:55:43;;;;;;;8.07;1.40;;;;;;;;;;5095982;28;20156;-78
2023/10/31 07:58:09;;;;;;;4.95;1.33;;;;;;;;;;5096291;28;20127;-75
2023/10/31 08:00:36;;;;;;;3.95;1.20;;;;;;;;;;5077318;28;20081;-77
2023/10/31 08:03:02;;;;;;;6.13;1.13;;;;;;;;;;5077752;28;20408;-79
2023/10/31 08:05:28;;;;;;;8.70;1.30;;;;;;;;;;5095208;28;20290;-78
2023/10/31 08:07:54;;;;;;;5.97;1.40;;;;;;;;;;5079256;28;20290;-76
2023/10/31 08:10:20;;;;;;;6.68;1.30;;;;;;;;;;5077594;28;20052;-79
2023/10/31 08:12:46;;;;;;;5.63;1.00;;;;;;;;;;5078303;28;20054;-79
2023/10/31 08:15:14;;;;;;;10.10;1.33;;;;;;;;;;5077497;28;20107;-76
2023/10/31 08:17:40;;;;;;;6.18;1.30;;;;;;;;;;5060951;28;20054;-77
2023/10/31 08:20:06;;;;;;;7.80;1.42;;;;;;;;;;5077096;28;20051;-76
2023/10/31 08:22:33;;;;;;;5.38;1.60;;;;;;;;;;5076961;28;20052;-79
2023/10/31 08:24:59;;;;;;;10.80;2.22;;;;;;;;;;5096080;28;20051;-76
2023/10/31 08:27:25;;;;;;;6.50;1.98;;;;;;;;;;5094947;28;20065;-75
2023/10/31 08:29:51;;;;;;;4.88;1.95;;;;;;;;;;5076894;28;20400;-77
2023/10/31 08:32:17;;;;;;;7.03;1.80;;;;;;;;;;5094643;28;20044;-76
2023/10/31 08:34:43;;;;;;;7.07;1.35;;;;;;;;;;5076499;28;20044;-76
2023/10/31 08:37:09;;;;;;;6.60;1.20;;;;;;;;;;5094940;28;20048;-76
2023/10/31 08:39:35;;;;;;;7.43;1.20;;;;;;;;;;5094716;28;20040;-75
2023/10/31 08:42:01;;;;;;;7.03;1.15;;;;;;;;;;5094582;28;20127;-76
2023/10/31 08:44:27;;;;;;;7.53;1.02;;;;;;;;;;5076158;28;20040;-73
2023/10/31 08:46:53;;;;;;;6.88;1.30;;;;;;;;;;5076423;28;20214;-72
2023/10/31 08:49:20;;;;;;;4.70;1.25;;;;;;;;;;5076751;28;20051;-76
2023/10/31 08:51:46;;;;;;;6.38;0.93;;;;;;;;;;5077179;28;20511;-78
2023/10/31 08:54:12;;;;;;;9.63;1.13;;;;;;;;;;5094475;28;20106;-76
2023/10/31 08:56:38;;;;;;;5.85;1.17;;;;;;;;;;5094167;28;20047;-77
2023/10/31 08:59:04;;;;;;;9.70;1.13;;;;;;;;;;5076040;28;20052;-75
2023/10/31 09:01:30;;;;;;;6.53;1.13;;;;;;;;;;5094015;28;20101;-76
2023/10/31 09:03:58;;;;;;;5.78;1.02;;;;;;;;;;5075965;28;20529;-75
2023/10/31 09:06:24;;;;;;;8.68;1.50;;;;;;;;;;5072892;28;20060;-74
2023/10/31 09:08:50;;;;;;;8.67;1.83;;;;;;;;;;5056070;28;20063;-78
2023/10/31 09:11:16;;;;;;;4.53;1.02;;;;;;;;;;5074417;28;20279;-73
2023/10/31 09:13:43;;;;;;;3.55;0.77;;;;;;;;;;5073938;28;20045;-77
2023/10/31 09:16:09;;;;;;;6.43;0.90;;;;;;;;;;5073164;28;20076;-78
2023/10/31 09:18:36;;;;;;;10.18;0.80;;;;;;;;;;5074611;28;20416;-79
2023/10/31 09:21:02;;;;;;;5.65;0.63;;;;;;;;;;5072979;28;20044;-78
2023/10/31 09:23:29;;;;;;;8.88;0.85;;;;;;;;;;5056374;28;20055;-76
2023/10/31 09:25:55;;;;;;;;;;;;;;;;;;5073248;28;20054;-76
2023/10/31 09:28:21;;;;;;;5.67;0.80;;;;;;;;;;5073854;28;20322;-75
2023/10/31 09:30:47;;;;;;;6.80;0.77;;;;;;;;;;5072986;28;20048;-75
2023/10/31 09:33:13;;;;;;;8.07;0.60;;;;;;;;;;5073922;28;20057;-74
2023/10/31 09:35:39;;;;;;;5.80;0.50;;;;;;;;;;5073321;28;20041;-77
2023/10/31 09:38:06;;;;;;;2.88;0.50;;;;;;;;;;5072577;28;20044;-75
2023/10/31 09:40:32;;;;;;;6.03;0.38;;;;;;;;;;5072820;28;20048;-77
2023/10/31 09:42:58;;;;;;;4.32;0.40;;;;;;;;;;5074062;28;20044;-76
2023/10/31 09:45:24;;;;;;;4.88;0.38;;;;;;;;;;5072472;28;20053;-80
2023/10/31 09:47:50;;;;;;;7.25;0.47;;;;;;;;;;5073613;28;20425;-80
2023/10/31 09:50:16;;;;;;;3.97;0.30;;;;;;;;;;5074175;28;20042;-75
2023/10/31 09:52:42;;;;;;;3.75;0.20;;;;;;;;;;5074234;28;20045;-80
2023/10/31 09:55:09;;;;;;;2.58;0.10;;;;;;;;;;5076046;28;20090;-81
2023/10/31 09:57:35;;;;;;;4.03;0.20;;;;;;;;;;5076578;28;20396;-78
2023/10/31 10:00:01;;;;;;;5.50;0.20;;;;;;;;;;5074492;28;20080;-76
2023/10/31 10:02:27;;;;;;;2.60;0.10;;;;;;;;;;5056957;28;20060;-76
2023/10/31 10:04:53;;;;;;;1.70;0.20;;;;;;;;;;5074378;28;20049;-80
2023/10/31 10:07:20;;;;;;;7.40;0.20;;;;;;;;;;5095027;28;20072;-76
2023/10/31 10:09:46;;;;;;;3.70;0.10;;;;;;;;;;5093706;28;20336;-76
2023/10/31 10:12:13;;;;;;;2.50;0.10;;;;;;;;;;5095542;28;20052;-77
2023/10/31 10:14:40;;;;;;;3.25;0.10;;;;;;;;;;5097899;28;20055;-77
2023/10/31 10:17:16;;;;;;;1.80;0.20;;;;;;;;;;5063159;28;20092;-82
2023/10/31 10:19:42;;;;;;;6.07;0.10;;;;;;;;;;5098013;28;20044;-76
2023/10/31 10:22:10;;;;;;;4.30;0.20;;;;;;;;;;5098054;28;20451;-74
2023/10/31 10:24:36;;;;;;;6.43;0.30;;;;;;;;;;5079038;28;20048;-73
2023/10/31 10:27:02;;;;;;;8.65;1.00;;;;;;;;;;5097484;28;20051;-74
2023/10/31 10:29:28;;;;;;;3.80;0.40;;;;;;;;;;5097283;28;20083;-77
2023/10/31 10:31:54;;;;;;;4.05;0.10;;;;;;;;;;5063054;28;20134;-76
2023/10/31 10:34:20;;;;;;;1.55;0.00;;;;;;;;;;5098535;28;20045;-73
2023/10/31 10:36:49;;;;;;;1.23;0.10;;;;;;;;;;5097919;28;20488;-77
2023/10/31 10:39:19;;;;;;;1.38;0.00;;;;;;;;;;5080294;28;20277;-75
2023/10/31 10:41:48;;;;;;;0.00;0.00;;;;;;;;;;5078871;28;20044;-76
2023/10/31 10:44:15;;;;;;;0.28;0.00;;;;;;;;;;5078946;28;20063;-74
2023/10/31 10:46:41;;;;;;;;;;;;;;;;;;5079165;28;20484;-74
2023/10/31 10:49:07;;;;;;;0.20;0.00;;;;;;;;;;5096797;28;19974;-74
2023/10/31 10:51:41;;;;;;;0.40;0.00;;;;;;;;;;5078840;28;20473;-75
2023/10/31 10:54:15;;;;;;;0.90;0.00;;;;;;;;;;5096783;28;20069;-73
2023/10/31 10:56:43;;;;;;;2.53;0.00;;;;;;;;;;5079060;28;20147;-74
2023/10/31 10:59:15;;;;;;;0.80;0.10;;;;;;;;;;5097177;28;20468;-76
2023/10/31 11:01:42;;;;;;;2.97;0.10;;;;;;;;;;5096846;28;20117;-75
2023/10/31 11:04:08;;;;;;;2.30;0.00;;;;;;;;;;5096395;28;20044;-74
2023/10/31 11:06:38;;;;;;;0.55;0.00;;;;;;;;;;5097288;28;20415;-76
2023/10/31 11:09:06;;;;;;;1.95;0.10;;;;;;;;;;5096171;28;20048;-75
2023/10/31 11:11:32;;;;;;;0.43;0.00;;;;;;;;;;5061778;28;20058;-74
2023/10/31 11:13:59;;;;;;;3.10;0.10;;;;;;;;;;5078374;28;20139;-76
2023/10/31 11:16:29;;;;;;;1.33;0.10;;;;;;;;;;5078497;28;20056;-75
2023/10/31 11:18:56;;;;;;;0.88;0.10;;;;;;;;;;5096397;28;20758;-76
2023/10/31 11:21:28;;;;;;;0.60;0.03;;;;;;;;;;5096159;28;20044;-81
2023/10/31 11:23:59;;;;;;;2.00;0.40;;;;;;;;;;5077806;28;20052;-77
2023/10/31 11:26:32;;;;;;;1.48;0.10;;;;;;;;;;5096584;28;20392;-79
2023/10/31 11:29:05;;;;;;;4.28;0.10;;;;;;;;;;5081183;28;20122;-76
2023/10/31 11:31:33;;;;;;;2.20;0.10;;;;;;;;;;5100723;28;20054;-79
2023/10/31 11:34:02;;;;;;;0.93;0.10;;;;;;;;;;5100008;28;20040;-77
2023/10/31 11:36:33;;;;;;;1.42;0.20;;;;;;;;;;5100161;28;20048;-76
2023/10/31 11:39:15;;;;;;;3.08;0.20;;;;;;;;;;5102544;28;20044;-80
2023/10/31 11:41:46;;;;;;;2.60;0.40;;;;;;;;;;5101477;28;20078;-81
2023/10/31 11:44:12;;;;;;;2.28;0.20;;;;;;;;;;5102925;28;20062;-82
2023/10/31 11:46:38;;;;;;;2.47;0.30;;;;;;;;;;5101610;28;20062;-80
2023/10/31 11:49:05;;;;;;;1.40;0.40;;;;;;;;;;5100209;28;20180;-80
2023/10/31 11:51:31;;;;;;;2.60;0.52;;;;;;;;;;5064745;28;20073;-79
2023/10/31 11:53:57;;;;;;;1.23;0.20;;;;;;;;;;5081496;28;20052;-77
2023/10/31 11:56:24;;;;;;;1.27;0.20;;;;;;;;;;5099365;28;20286;-80
2023/10/31 11:59:00;;;;;;;1.00;0.10;;;;;;;;;;5100589;28;20084;-80
2023/10/31 12:01:26;;;;;;;0.68;0.20;;;;;;;;;;5098381;28;20048;-76
2023/10/31 12:03:52;;;;;;;1.27;0.30;;;;;;;;;;5063475;28;20127;-81
2023/10/31 12:06:20;;;;;;;4.13;0.40;;;;;;;;;;5096910;28;20144;-78
2023/10/31 12:08:47;;;;;;;0.45;0.10;;;;;;;;;;5099445;28;20048;-79
2023/10/31 12:11:13;;;;;;;;;;;;;;;;;;5095729;28;20058;-79
2023/10/31 12:13:40;;;;;;;1.35;0.10;;;;;;;;;;5100110;28;19983;-79
2023/10/31 12:16:07;;;;;;;1.38;0.10;;;;;;;;;;5083932;28;20048;-76
2023/10/31 12:18:36;;;;;;;1.48;0.10;;;;;;;;;;5087103;28;20055;-77
2023/10/31 12:21:03;;;;;;;3.42;0.00;;;;;;;;;;5104978;28;20048;-80
2023/10/31 12:23:29;;;;;;;0.20;0.00;;;;;;;;;;5087178;28;20051;-81
2023/10/31 12:25:56;;;;;;;1.17;0.00;;;;;;;;;;5099689;28;20085;-79
2023/10/31 12:28:22;;;;;;;;;;;;;;;;;;5096485;28;20051;-76
2023/10/31 12:30:49;;;;;;;1.30;0.00;;;;;;;;;;5081188;28;20297;-77
2023/10/31 12:33:16;;;;;;;1.35;0.00;;;;;;;;;;5098360;28;20119;-79
2023/10/31 12:35:43;;;;;;;3.58;0.10;;;;;;;;;;5080018;28;20155;-77
2023/10/31 12:38:13;;;;;;;1.48;0.10;;;;;;;;;;5101810;28;20052;-79
2023/10/31 12:40:41;;;;;;;0.38;0.10;;;;;;;;;;5100981;28;20075;-76
2023/10/31 12:43:07;;;;;;;2.03;0.20;;;;;;;;;;5101184;28;20117;-79
2023/10/31 12:45:34;;;;;;;0.77;0.10;;;;;;;;;;5081596;28;20056;-80
2023/10/31 12:48:04;;;;;;;1.40;0.13;;;;;;;;;;5097704;28;20048;-78
2023/10/31 12:50:30;;;;;;;1.90;0.10;;;;;;;;;;5096801;28;20052;-79
2023/10/31 12:52:57;;;;;;;1.13;0.20;;;;;;;;;;5077601;28;20051;-77
2023/10/31 12:55:23;;;;;;;;;;;;;;;;;;5095948;28;20070;-80
2023/10/31 12:57:51;;;;;;;1.93;0.00;;;;;;;;;;5094646;28;20368;-80
2023/10/31 13:00:24;;;;;;;0.82;0.10;;;;;;;;;;5076833;28;20584;-78
2023/10/31 13:02:50;;;;;;;0.47;0.00;;;;;;;;;;5094915;28;20047;-78
2023/10/31 13:05:16;;;;;;;1.75;0.00;;;;;;;;;;5059390;28;20094;-75
2023/10/31 13:07:49;;;;;;;0.63;0.00;;;;;;;;;;5094104;28;20488;-79
2023/10/31 13:10:16;;;;;;;1.15;0.15;;;;;;;;;;5094215;28;20130;-78
2023/10/31 13:12:46;;;;;;;1.48;0.10;;;;;;;;;;5061008;28;20119;-78
2023/10/31 13:15:14;;;;;;;0.20;0.00;;;;;;;;;;5097066;28;20051;-79
2023/10/31 13:17:41;;;;;;;0.88;0.10;;;;;;;;;;5062006;28;20044;-77
2023/10/31 13:20:09;;;;;;;1.40;0.10;;;;;;;;;;5094274;28;20131;-79
2023/10/31 13:22:35;;;;;;;1.42;0.10;;;;;;;;;;5093764;28;20496;-77
2023/10/31 13:25:05;;;;;;;1.00;0.20;;;;;;;;;;5094321;28;20044;-77
2023/10/31 13:27:31;;;;;;;0.55;0.10;;;;;;;;;;5093785;28;20171;-75
2023/10/31 13:29:58;;;;;;;2.33;0.00;;;;;;;;;;5076196;28;20046;-74
2023/10/31 13:32:24;;;;;;;1.23;0.03;;;;;;;;;;5093250;28;20066;-77
2023/10/31 13:34:50;;;;;;;1.75;0.10;;;;;;;;;;5093686;28;20127;-74
2023/10/31 13:37:16;;;;;;;1.13;0.13;;;;;;;;;;5060059;28;20102;-76
2023/10/31 13:39:42;;;;;;;1.08;0.08;;;;;;;;;;5075554;28;20090;-78
2023/10/31 13:42:10;;;;;;;0.10;0.00;;;;;;;;;;5075342;28;20175;-73
2023/10/31 13:44:36;;;;;;;1.48;0.10;;;;;;;;;;5058977;28;20476;-75
2023/10/31 13:47:03;;;;;;;1.45;0.10;;;;;;;;;;5093847;28;20053;-71
2023/10/31 13:49:29;;;;;;;0.73;0.10;;;;;;;;;;5075549;28;20051;-76
2023/10/31 13:51:55;;;;;;;1.40;0.17;;;;;;;;;;5093375;28;20048;-78
2023/10/31 13:54:21;;;;;;;1.65;0.20;;;;;;;;;;5093238;28;20357;-77
2023/10/31 13:56:48;;;;;;;4.00;0.40;;;;;;;;;;5093383;28;20052;-77
2023/10/31 13:59:14;;;;;;;1.42;0.20;;;;;;;;;;5075907;28;20429;-77
2023/10/31 14:01:40;;;;;;;4.07;0.30;;;;;;;;;;5093288;28;20130;-77
2023/10/31 14:04:07;;;;;;;3.08;0.40;;;;;;;;;;5093114;28;20044;-77
2023/10/31 14:06:33;;;;;;;1.05;0.30;;;;;;;;;;5093080;28;20056;-75
2023/10/31 14:09:00;;;;;;;1.20;0.30;;;;;;;;;;5075620;28;20052;-75
2023/10/31 14:11:26;;;;;;;2.08;0.30;;;;;;;;;;5093215;28;20435;-76
2023/10/31 14:13:52;;;;;;;2.10;0.20;;;;;;;;;;5093104;28;20040;-77
2023/10/31 14:16:18;;;;;;;1.52;0.20;;;;;;;;;;5092840;28;20492;-76
2023/10/31 14:18:46;;;;;;;3.87;0.30;;;;;;;;;;5093386;28;20486;-77
2023/10/31 14:21:12;;;;;;;2.95;0.20;;;;;;;;;;5093113;28;20447;-78
2023/10/31 14:23:38;;;;;;;1.80;0.10;;;;;;;;;;5093024;28;20040;-76
2023/10/31 14:26:04;;;;;;;2.58;0.60;;;;;;;;;;5093177;28;20370;-77
2023/10/31 14:28:31;;;;;;;2.15;0.10;;;;;;;;;;5093538;28;20044;-76
2023/10/31 14:30:57;;;;;;;1.80;0.10;;;;;;;;;;5093124;28;20075;-76
2023/10/31 14:33:23;;;;;;;4.30;0.52;;;;;;;;;;5093701;28;20373;-75
2023/10/31 14:35:49;;;;;;;4.72;0.30;;;;;;;;;;5093060;28;20048;-76
2023/10/31 14:38:15;;;;;;;1.40;0.20;;;;;;;;;;5074912;28;20071;-76